Longue-Pointe, Canada
Current Conditions -  °F | °C
As of 3:49 AM on Sunday 26 Oct 2014 (Local Time) from CYGV Reporting Station
Light Snow Light Snow  
Wind Chill: 22°   Ceiling: 1800
Heat Index: 32°   Visibility: 3mi
Dew Point: 32°   Wind: 15mph
Humidity: 100%   Direction: 50°NE
Pressure: 29.56"   Gusts: 22mph
Location:  50.27°N, 64.15°W
Report Text: CYGV 260749Z AUTO 05013G19KT 3SM -SN FEW005 OVC018 00/00 A2956 RMK ICG PAST HR PCPN 1.5MM PAST HR SLP010
Loading
Personal Weather Stations






























Interactive Weather Map
Tropical Storm Tracking
New forecast layout! Learn more

10-Day Weather Forecast

Advertisements
Track Severe Weather on mobile